sensor_id;sensor_type;location;lat;lon;timestamp;P1;durP1;ratioP1;P2;durP2;ratioP2
17451;SDS011;8843;48.838;9.324;2024-01-16T00:00:59;5.00;;;3.10;;
17451;SDS011;8843;48.838;9.324;2024-01-16T00:03:27;4.50;;;3.57;;
17451;SDS011;8843;48.838;9.324;2024-01-16T00:05:54;3.73;;;2.80;;
17451;SDS011;8843;48.838;9.324;2024-01-16T00:08:21;4.77;;;2.90;;
17451;SDS011;8843;48.838;9.324;2024-01-16T00:10:48;2.93;;;2.63;;
17451;SDS011;8843;48.838;9.324;2024-01-16T00:13:15;6.60;;;3.07;;
17451;SDS011;8843;48.838;9.324;2024-01-16T00:15:42;3.90;;;2.50;;
17451;SDS011;8843;48.838;9.324;2024-01-16T00:18:09;3.73;;;2.90;;
17451;SDS011;8843;48.838;9.324;2024-01-16T00:20:37;5.90;;;2.90;;
17451;SDS011;8843;48.838;9.324;2024-01-16T00:23:04;5.00;;;3.50;;
17451;SDS011;8843;48.838;9.324;2024-01-16T00:25:31;3.17;;;2.70;;
17451;SDS011;8843;48.838;9.324;2024-01-16T00:27:57;5.97;;;3.20;;
17451;SDS011;8843;48.838;9.324;2024-01-16T00:30:24;4.77;;;3.47;;
17451;SDS011;8843;48.838;9.324;2024-01-16T00:32:51;5.20;;;3.10;;
17451;SDS011;8843;48.838;9.324;2024-01-16T00:35:18;3.80;;;2.87;;
17451;SDS011;8843;48.838;9.324;2024-01-16T00:37:46;4.40;;;2.90;;
17451;SDS011;8843;48.838;9.324;2024-01-16T00:40:13;4.43;;;2.80;;
17451;SDS011;8843;48.838;9.324;2024-01-16T00:42:40;5.83;;;3.10;;
17451;SDS011;8843;48.838;9.324;2024-01-16T00:45:07;6.03;;;3.10;;
17451;SDS011;8843;48.838;9.324;2024-01-16T00:47:34;4.77;;;2.90;;
17451;SDS011;8843;48.838;9.324;2024-01-16T00:50:01;8.30;;;3.53;;
17451;SDS011;8843;48.838;9.324;2024-01-16T00:52:28;6.57;;;2.97;;
17451;SDS011;8843;48.838;9.324;2024-01-16T00:54:56;7.47;;;3.30;;
17451;SDS011;8843;48.838;9.324;2024-01-16T00:57:23;4.50;;;2.90;;
17451;SDS011;8843;48.838;9.324;2024-01-16T00:59:50;4.30;;;2.90;;
17451;SDS011;8843;48.838;9.324;2024-01-16T01:02:17;4.43;;;3.03;;
17451;SDS011;8843;48.838;9.324;2024-01-16T01:04:44;4.57;;;2.77;;
17451;SDS011;8843;48.838;9.324;2024-01-16T01:07:12;4.43;;;3.17;;
17451;SDS011;8843;48.838;9.324;2024-01-16T01:09:40;4.23;;;3.30;;
17451;SDS011;8843;48.838;9.324;2024-01-16T01:12:08;5.70;;;2.83;;
17451;SDS011;8843;48.838;9.324;2024-01-16T01:14:35;4.47;;;3.70;;
17451;SDS011;8843;48.838;9.324;2024-01-16T01:17:02;4.87;;;3.70;;
17451;SDS011;8843;48.838;9.324;2024-01-16T01:19:30;4.13;;;3.03;;
17451;SDS011;8843;48.838;9.324;2024-01-16T01:21:57;3.43;;;2.57;;
17451;SDS011;8843;48.838;9.324;2024-01-16T01:24:24;3.73;;;2.80;;
17451;SDS011;8843;48.838;9.324;2024-01-16T01:26:50;5.13;;;3.37;;
17451;SDS011;8843;48.838;9.324;2024-01-16T01:29:19;6.03;;;3.37;;
17451;SDS011;8843;48.838;9.324;2024-01-16T01:31:46;3.53;;;3.00;;
17451;SDS011;8843;48.838;9.324;2024-01-16T01:34:14;3.47;;;2.77;;
17451;SDS011;8843;48.838;9.324;2024-01-16T01:36:41;4.57;;;3.23;;
17451;SDS011;8843;48.838;9.324;2024-01-16T01:39:08;3.17;;;2.70;;
17451;SDS011;8843;48.838;9.324;2024-01-16T01:41:36;6.77;;;3.10;;
17451;SDS011;8843;48.838;9.324;2024-01-16T01:44:03;4.43;;;3.07;;
17451;SDS011;8843;48.838;9.324;2024-01-16T01:46:31;3.83;;;2.83;;
17451;SDS011;8843;48.838;9.324;2024-01-16T01:49:00;4.73;;;3.40;;
17451;SDS011;8843;48.838;9.324;2024-01-16T01:51:27;4.20;;;2.80;;
17451;SDS011;8843;48.838;9.324;2024-01-16T01:53:55;4.80;;;2.67;;
17451;SDS011;8843;48.838;9.324;2024-01-16T01:56:23;4.27;;;2.90;;
17451;SDS011;8843;48.838;9.324;2024-01-16T01:58:53;3.43;;;2.67;;
17451;SDS011;8843;48.838;9.324;2024-01-16T02:01:21;4.57;;;3.17;;
17451;SDS011;8843;48.838;9.324;2024-01-16T02:03:52;4.50;;;2.70;;
17451;SDS011;8843;48.838;9.324;2024-01-16T02:06:21;5.13;;;2.90;;
17451;SDS011;8843;48.838;9.324;2024-01-16T02:08:48;5.47;;;2.90;;
17451;SDS011;8843;48.838;9.324;2024-01-16T02:11:15;4.80;;;2.97;;
17451;SDS011;8843;48.838;9.324;2024-01-16T02:13:43;4.73;;;3.00;;
17451;SDS011;8843;48.838;9.324;2024-01-16T02:16:17;5.23;;;2.77;;
17451;SDS011;8843;48.838;9.324;2024-01-16T02:18:45;4.40;;;3.17;;
17451;SDS011;8843;48.838;9.324;2024-01-16T02:21:13;4.33;;;3.03;;
17451;SDS011;8843;48.838;9.324;2024-01-16T02:23:46;6.57;;;3.20;;
17451;SDS011;8843;48.838;9.324;2024-01-16T02:26:13;6.57;;;3.20;;
17451;SDS011;8843;48.838;9.324;2024-01-16T02:28:41;5.03;;;2.70;;
17451;SDS011;8843;48.838;9.324;2024-01-16T02:31:08;6.23;;;3.63;;
17451;SDS011;8843;48.838;9.324;2024-01-16T02:33:35;5.27;;;3.33;;
17451;SDS011;8843;48.838;9.324;2024-01-16T02:36:03;3.80;;;3.27;;
17451;SDS011;8843;48.838;9.324;2024-01-16T02:38:30;4.50;;;3.10;;
17451;SDS011;8843;48.838;9.324;2024-01-16T02:40:58;8.53;;;3.27;;
17451;SDS011;8843;48.838;9.324;2024-01-16T02:43:25;4.80;;;2.90;;
17451;SDS011;8843;48.838;9.324;2024-01-16T02:45:52;4.07;;;2.80;;
17451;SDS011;8843;48.838;9.324;2024-01-16T02:48:19;9.00;;;3.33;;
17451;SDS011;8843;48.838;9.324;2024-01-16T02:50:46;3.03;;;2.47;;
17451;SDS011;8843;48.838;9.324;2024-01-16T02:53:13;5.53;;;3.60;;
17451;SDS011;8843;48.838;9.324;2024-01-16T02:55:40;8.23;;;3.50;;
17451;SDS011;8843;48.838;9.324;2024-01-16T02:58:09;9.07;;;3.30;;
17451;SDS011;8843;48.838;9.324;2024-01-16T03:00:35;4.00;;;2.70;;
17451;SDS011;8843;48.838;9.324;2024-01-16T03:03:03;3.57;;;3.10;;
17451;SDS011;8843;48.838;9.324;2024-01-16T03:05:30;3.83;;;3.13;;
17451;SDS011;8843;48.838;9.324;2024-01-16T03:07:57;4.47;;;2.90;;
17451;SDS011;8843;48.838;9.324;2024-01-16T03:10:24;4.27;;;3.20;;
17451;SDS011;8843;48.838;9.324;2024-01-16T03:12:51;4.33;;;3.40;;
17451;SDS011;8843;48.838;9.324;2024-01-16T03:15:20;6.33;;;3.23;;
17451;SDS011;8843;48.838;9.324;2024-01-16T03:17:47;7.37;;;2.97;;
17451;SDS011;8843;48.838;9.324;2024-01-16T03:20:14;5.73;;;4.03;;
17451;SDS011;8843;48.838;9.324;2024-01-16T03:22:42;5.63;;;3.20;;
17451;SDS011;8843;48.838;9.324;2024-01-16T03:25:09;4.33;;;3.23;;
17451;SDS011;8843;48.838;9.324;2024-01-16T03:27:37;3.63;;;2.40;;
17451;SDS011;8843;48.838;9.324;2024-01-16T03:30:04;3.40;;;2.90;;
17451;SDS011;8843;48.838;9.324;2024-01-16T03:32:34;4.27;;;3.00;;
17451;SDS011;8843;48.838;9.324;2024-01-16T03:35:01;3.67;;;3.03;;
17451;SDS011;8843;48.838;9.324;2024-01-16T03:37:28;3.80;;;2.90;;
17451;SDS011;8843;48.838;9.324;2024-01-16T03:39:55;4.23;;;2.70;;
17451;SDS011;8843;48.838;9.324;2024-01-16T03:42:23;7.27;;;3.23;;
17451;SDS011;8843;48.838;9.324;2024-01-16T03:44:50;6.73;;;3.77;;
17451;SDS011;8843;48.838;9.324;2024-01-16T03:47:17;7.17;;;3.40;;
17451;SDS011;8843;48.838;9.324;2024-01-16T03:49:45;5.93;;;3.00;;
17451;SDS011;8843;48.838;9.324;2024-01-16T03:52:12;6.63;;;3.30;;
17451;SDS011;8843;48.838;9.324;2024-01-16T03:54:39;5.70;;;2.80;;
17451;SDS011;8843;48.838;9.324;2024-01-16T03:57:06;4.27;;;3.00;;
17451;SDS011;8843;48.838;9.324;2024-01-16T03:59:35;5.13;;;3.27;;
17451;SDS011;8843;48.838;9.324;2024-01-16T04:02:03;7.97;;;3.83;;
17451;SDS011;8843;48.838;9.324;2024-01-16T04:04:30;5.53;;;3.47;;
17451;SDS011;8843;48.838;9.324;2024-01-16T04:06:58;6.57;;;3.87;;
17451;SDS011;8843;48.838;9.324;2024-01-16T04:09:25;4.27;;;3.10;;
17451;SDS011;8843;48.838;9.324;2024-01-16T04:11:52;5.37;;;3.10;;
17451;SDS011;8843;48.838;9.324;2024-01-16T04:14:19;5.97;;;3.30;;
17451;SDS011;8843;48.838;9.324;2024-01-16T04:16:46;4.97;;;3.10;;
17451;SDS011;8843;48.838;9.324;2024-01-16T04:19:13;5.87;;;2.87;;
17451;SDS011;8843;48.838;9.324;2024-01-16T04:21:40;5.67;;;3.13;;
17451;SDS011;8843;48.838;9.324;2024-01-16T04:24:08;4.97;;;3.10;;
17451;SDS011;8843;48.838;9.324;2024-01-16T04:26:35;3.77;;;2.67;;
17451;SDS011;8843;48.838;9.324;2024-01-16T04:29:03;4.90;;;3.60;;
17451;SDS011;8843;48.838;9.324;2024-01-16T04:31:30;5.13;;;2.93;;
17451;SDS011;8843;48.838;9.324;2024-01-16T04:33:58;5.20;;;3.17;;
17451;SDS011;8843;48.838;9.324;2024-01-16T04:36:25;5.00;;;2.90;;
17451;SDS011;8843;48.838;9.324;2024-01-16T04:38:52;3.97;;;2.60;;
17451;SDS011;8843;48.838;9.324;2024-01-16T04:41:20;4.60;;;3.17;;
17451;SDS011;8843;48.838;9.324;2024-01-16T04:43:47;4.33;;;3.17;;
17451;SDS011;8843;48.838;9.324;2024-01-16T04:46:16;6.23;;;2.90;;
17451;SDS011;8843;48.838;9.324;2024-01-16T04:48:42;5.47;;;3.10;;
17451;SDS011;8843;48.838;9.324;2024-01-16T04:51:09;4.10;;;2.80;;
17451;SDS011;8843;48.838;9.324;2024-01-16T04:53:36;5.40;;;3.00;;
17451;SDS011;8843;48.838;9.324;2024-01-16T04:56:04;6.63;;;3.50;;
17451;SDS011;8843;48.838;9.324;2024-01-16T04:58:32;6.40;;;3.20;;
17451;SDS011;8843;48.838;9.324;2024-01-16T05:00:59;5.20;;;3.40;;
17451;SDS011;8843;48.838;9.324;2024-01-16T05:03:26;6.67;;;3.20;;
17451;SDS011;8843;48.838;9.324;2024-01-16T05:05:53;4.03;;;2.90;;
17451;SDS011;8843;48.838;9.324;2024-01-16T05:08:21;4.40;;;3.20;;
17451;SDS011;8843;48.838;9.324;2024-01-16T05:10:48;3.67;;;2.50;;
17451;SDS011;8843;48.838;9.324;2024-01-16T05:13:15;3.83;;;2.87;;
17451;SDS011;8843;48.838;9.324;2024-01-16T05:15:43;4.33;;;3.50;;
17451;SDS011;8843;48.838;9.324;2024-01-16T05:18:10;5.00;;;3.43;;
17451;SDS011;8843;48.838;9.324;2024-01-16T05:20:37;5.03;;;3.30;;
17451;SDS011;8843;48.838;9.324;2024-01-16T05:23:04;5.53;;;3.37;;
17451;SDS011;8843;48.838;9.324;2024-01-16T05:25:32;6.70;;;3.43;;
17451;SDS011;8843;48.838;9.324;2024-01-16T05:27:58;6.57;;;3.57;;
17451;SDS011;8843;48.838;9.324;2024-01-16T05:30:25;5.07;;;3.10;;
17451;SDS011;8843;48.838;9.324;2024-01-16T05:32:54;7.67;;;3.47;;
17451;SDS011;8843;48.838;9.324;2024-01-16T05:35:21;4.70;;;3.40;;
17451;SDS011;8843;48.838;9.324;2024-01-16T05:37:49;5.53;;;3.17;;
17451;SDS011;8843;48.838;9.324;2024-01-16T05:40:15;4.17;;;2.83;;
17451;SDS011;8843;48.838;9.324;2024-01-16T05:42:42;5.23;;;3.10;;
17451;SDS011;8843;48.838;9.324;2024-01-16T05:45:09;5.17;;;3.27;;
17451;SDS011;8843;48.838;9.324;2024-01-16T05:47:36;4.83;;;2.97;;
17451;SDS011;8843;48.838;9.324;2024-01-16T05:50:05;4.77;;;3.13;;
17451;SDS011;8843;48.838;9.324;2024-01-16T05:52:33;5.40;;;3.20;;
17451;SDS011;8843;48.838;9.324;2024-01-16T05:55:00;5.33;;;3.30;;
17451;SDS011;8843;48.838;9.324;2024-01-16T05:57:28;6.40;;;3.30;;
17451;SDS011;8843;48.838;9.324;2024-01-16T05:59:56;4.13;;;2.90;;
17451;SDS011;8843;48.838;9.324;2024-01-16T06:02:23;4.30;;;2.90;;
17451;SDS011;8843;48.838;9.324;2024-01-16T06:04:50;9.53;;;3.50;;
17451;SDS011;8843;48.838;9.324;2024-01-16T06:07:18;5.10;;;3.17;;
17451;SDS011;8843;48.838;9.324;2024-01-16T06:09:45;8.20;;;3.83;;
17451;SDS011;8843;48.838;9.324;2024-01-16T06:12:12;3.37;;;2.80;;
17451;SDS011;8843;48.838;9.324;2024-01-16T06:14:39;5.40;;;3.50;;
17451;SDS011;8843;48.838;9.324;2024-01-16T06:17:06;5.40;;;3.70;;
17451;SDS011;8843;48.838;9.324;2024-01-16T06:19:33;5.93;;;3.13;;
17451;SDS011;8843;48.838;9.324;2024-01-16T06:22:00;5.60;;;2.73;;
17451;SDS011;8843;48.838;9.324;2024-01-16T06:24:30;5.47;;;3.33;;
17451;SDS011;8843;48.838;9.324;2024-01-16T06:27:01;5.67;;;3.73;;
17451;SDS011;8843;48.838;9.324;2024-01-16T06:29:30;4.77;;;2.87;;
17451;SDS011;8843;48.838;9.324;2024-01-16T06:31:57;5.57;;;4.07;;
17451;SDS011;8843;48.838;9.324;2024-01-16T06:34:24;5.87;;;3.07;;
17451;SDS011;8843;48.838;9.324;2024-01-16T06:36:51;6.07;;;3.63;;
17451;SDS011;8843;48.838;9.324;2024-01-16T06:39:18;6.73;;;3.87;;
17451;SDS011;8843;48.838;9.324;2024-01-16T06:41:46;5.63;;;3.43;;
17451;SDS011;8843;48.838;9.324;2024-01-16T06:44:13;7.57;;;4.00;;
17451;SDS011;8843;48.838;9.324;2024-01-16T06:46:40;5.73;;;3.40;;
17451;SDS011;8843;48.838;9.324;2024-01-16T06:49:07;5.57;;;4.07;;
17451;SDS011;8843;48.838;9.324;2024-01-16T06:51:34;5.67;;;3.47;;
17451;SDS011;8843;48.838;9.324;2024-01-16T06:54:01;7.70;;;3.93;;
17451;SDS011;8843;48.838;9.324;2024-01-16T06:56:28;6.77;;;3.87;;
17451;SDS011;8843;48.838;9.324;2024-01-16T06:58:56;6.30;;;4.00;;
17451;SDS011;8843;48.838;9.324;2024-01-16T07:01:23;5.70;;;3.50;;
17451;SDS011;8843;48.838;9.324;2024-01-16T07:03:50;3.93;;;3.30;;
17451;SDS011;8843;48.838;9.324;2024-01-16T07:06:17;6.17;;;3.30;;
17451;SDS011;8843;48.838;9.324;2024-01-16T07:08:44;8.03;;;3.27;;
17451;SDS011;8843;48.838;9.324;2024-01-16T07:11:11;5.07;;;2.80;;
17451;SDS011;8843;48.838;9.324;2024-01-16T07:13:39;4.77;;;3.47;;
17451;SDS011;8843;48.838;9.324;2024-01-16T07:16:08;7.00;;;3.47;;
17451;SDS011;8843;48.838;9.324;2024-01-16T07:18:35;8.20;;;3.40;;
17451;SDS011;8843;48.838;9.324;2024-01-16T07:21:02;5.30;;;3.33;;
17451;SDS011;8843;48.838;9.324;2024-01-16T07:23:29;6.03;;;2.97;;
17451;SDS011;8843;48.838;9.324;2024-01-16T07:25:56;6.90;;;3.37;;
17451;SDS011;8843;48.838;9.324;2024-01-16T07:28:23;6.87;;;3.80;;
17451;SDS011;8843;48.838;9.324;2024-01-16T07:30:52;6.13;;;3.20;;
17451;SDS011;8843;48.838;9.324;2024-01-16T07:33:21;4.90;;;3.03;;
17451;SDS011;8843;48.838;9.324;2024-01-16T07:35:48;7.53;;;3.53;;
17451;SDS011;8843;48.838;9.324;2024-01-16T07:38:15;4.97;;;3.53;;
17451;SDS011;8843;48.838;9.324;2024-01-16T07:40:42;5.17;;;3.20;;
17451;SDS011;8843;48.838;9.324;2024-01-16T07:43:09;4.57;;;3.30;;
17451;SDS011;8843;48.838;9.324;2024-01-16T07:45:35;7.90;;;3.70;;
17451;SDS011;8843;48.838;9.324;2024-01-16T07:48:02;4.03;;;3.10;;
17451;SDS011;8843;48.838;9.324;2024-01-16T07:50:31;5.43;;;3.60;;
17451;SDS011;8843;48.838;9.324;2024-01-16T07:52:58;5.23;;;3.20;;
17451;SDS011;8843;48.838;9.324;2024-01-16T07:55:25;4.73;;;3.40;;
17451;SDS011;8843;48.838;9.324;2024-01-16T07:57:53;6.30;;;3.40;;
17451;SDS011;8843;48.838;9.324;2024-01-16T08:00:20;5.27;;;3.67;;
17451;SDS011;8843;48.838;9.324;2024-01-16T08:02:47;3.97;;;3.00;;
17451;SDS011;8843;48.838;9.324;2024-01-16T08:05:15;4.70;;;3.20;;
17451;SDS011;8843;48.838;9.324;2024-01-16T08:07:43;5.27;;;3.30;;
17451;SDS011;8843;48.838;9.324;2024-01-16T08:10:10;3.80;;;2.90;;
17451;SDS011;8843;48.838;9.324;2024-01-16T08:12:37;4.83;;;3.37;;
17451;SDS011;8843;48.838;9.324;2024-01-16T08:15:04;5.40;;;3.10;;
17451;SDS011;8843;48.838;9.324;2024-01-16T08:17:32;3.47;;;2.80;;
17451;SDS011;8843;48.838;9.324;2024-01-16T08:19:59;4.87;;;2.97;;
17451;SDS011;8843;48.838;9.324;2024-01-16T08:22:26;6.57;;;3.20;;
17451;SDS011;8843;48.838;9.324;2024-01-16T08:24:54;4.83;;;3.27;;
17451;SDS011;8843;48.838;9.324;2024-01-16T08:27:21;5.67;;;3.20;;
17451;SDS011;8843;48.838;9.324;2024-01-16T08:29:48;4.73;;;2.90;;
17451;SDS011;8843;48.838;9.324;2024-01-16T08:32:15;6.67;;;3.57;;
17451;SDS011;8843;48.838;9.324;2024-01-16T08:34:42;4.97;;;3.07;;
17451;SDS011;8843;48.838;9.324;2024-01-16T08:37:09;5.33;;;3.07;;
17451;SDS011;8843;48.838;9.324;2024-01-16T08:39:36;4.47;;;2.90;;
17451;SDS011;8843;48.838;9.324;2024-01-16T08:42:04;7.33;;;3.37;;
17451;SDS011;8843;48.838;9.324;2024-01-16T08:44:31;3.60;;;2.73;;
17451;SDS011;8843;48.838;9.324;2024-01-16T08:46:58;4.87;;;2.43;;
17451;SDS011;8843;48.838;9.324;2024-01-16T08:49:27;5.40;;;3.13;;
17451;SDS011;8843;48.838;9.324;2024-01-16T08:51:54;6.93;;;2.97;;
17451;SDS011;8843;48.838;9.324;2024-01-16T08:54:21;5.60;;;3.10;;
17451;SDS011;8843;48.838;9.324;2024-01-16T08:56:48;3.87;;;2.93;;
17451;SDS011;8843;48.838;9.324;2024-01-16T08:59:17;5.60;;;2.87;;
17451;SDS011;8843;48.838;9.324;2024-01-16T09:01:44;6.00;;;3.13;;
17451;SDS011;8843;48.838;9.324;2024-01-16T09:04:11;3.30;;;2.60;;
17451;SDS011;8843;48.838;9.324;2024-01-16T09:06:37;5.60;;;2.87;;
17451;SDS011;8843;48.838;9.324;2024-01-16T09:09:04;5.07;;;2.90;;
17451;SDS011;8843;48.838;9.324;2024-01-16T09:11:31;6.03;;;3.27;;
17451;SDS011;8843;48.838;9.324;2024-01-16T09:13:58;4.37;;;3.17;;
17451;SDS011;8843;48.838;9.324;2024-01-16T09:16:27;3.93;;;3.00;;
17451;SDS011;8843;48.838;9.324;2024-01-16T09:18:53;5.97;;;3.47;;
17451;SDS011;8843;48.838;9.324;2024-01-16T09:21:21;6.53;;;3.07;;
17451;SDS011;8843;48.838;9.324;2024-01-16T09:23:48;4.03;;;3.20;;
17451;SDS011;8843;48.838;9.324;2024-01-16T09:26:15;5.83;;;3.00;;
17451;SDS011;8843;48.838;9.324;2024-01-16T09:28:42;8.53;;;3.43;;
17451;SDS011;8843;48.838;9.324;2024-01-16T09:31:09;4.20;;;3.03;;
17451;SDS011;8843;48.838;9.324;2024-01-16T09:33:37;5.97;;;3.13;;
17451;SDS011;8843;48.838;9.324;2024-01-16T09:36:05;5.87;;;3.37;;
17451;SDS011;8843;48.838;9.324;2024-01-16T09:38:32;5.57;;;3.10;;
17451;SDS011;8843;48.838;9.324;2024-01-16T09:40:59;3.27;;;2.40;;
17451;SDS011;8843;48.838;9.324;2024-01-16T09:43:28;3.60;;;2.60;;
17451;SDS011;8843;48.838;9.324;2024-01-16T09:45:56;5.17;;;2.87;;
17451;SDS011;8843;48.838;9.324;2024-01-16T09:48:26;4.40;;;3.03;;
17451;SDS011;8843;48.838;9.324;2024-01-16T09:50:56;5.43;;;3.40;;
17451;SDS011;8843;48.838;9.324;2024-01-16T09:53:22;4.87;;;2.77;;
17451;SDS011;8843;48.838;9.324;2024-01-16T09:55:50;4.97;;;2.87;;
17451;SDS011;8843;48.838;9.324;2024-01-16T09:58:20;3.60;;;2.57;;
17451;SDS011;8843;48.838;9.324;2024-01-16T10:00:47;6.03;;;2.60;;
17451;SDS011;8843;48.838;9.324;2024-01-16T10:03:15;4.47;;;2.70;;
17451;SDS011;8843;48.838;9.324;2024-01-16T10:05:42;4.03;;;2.70;;
17451;SDS011;8843;48.838;9.324;2024-01-16T10:08:12;3.20;;;2.90;;
17451;SDS011;8843;48.838;9.324;2024-01-16T10:10:39;4.00;;;2.90;;
17451;SDS011;8843;48.838;9.324;2024-01-16T10:13:06;4.50;;;2.93;;
17451;SDS011;8843;48.838;9.324;2024-01-16T10:15:33;5.10;;;2.97;;
17451;SDS011;8843;48.838;9.324;2024-01-16T10:18:01;6.03;;;2.97;;
17451;SDS011;8843;48.838;9.324;2024-01-16T10:20:32;6.87;;;3.10;;
17451;SDS011;8843;48.838;9.324;2024-01-16T10:22:59;6.80;;;2.90;;
17451;SDS011;8843;48.838;9.324;2024-01-16T10:25:30;7.13;;;3.17;;
17451;SDS011;8843;48.838;9.324;2024-01-16T10:28:03;8.17;;;3.50;;
17451;SDS011;8843;48.838;9.324;2024-01-16T10:30:33;9.43;;;3.10;;
17451;SDS011;8843;48.838;9.324;2024-01-16T10:33:11;3.10;;;2.70;;
17451;SDS011;8843;48.838;9.324;2024-01-16T10:35:41;4.27;;;2.70;;
17451;SDS011;8843;48.838;9.324;2024-01-16T10:38:08;5.67;;;2.67;;
17451;SDS011;8843;48.838;9.324;2024-01-16T10:40:36;5.20;;;2.83;;
17451;SDS011;8843;48.838;9.324;2024-01-16T10:43:03;6.17;;;3.30;;
17451;SDS011;8843;48.838;9.324;2024-01-16T10:45:31;3.90;;;2.83;;
17451;SDS011;8843;48.838;9.324;2024-01-16T10:48:02;5.73;;;3.07;;
17451;SDS011;8843;48.838;9.324;2024-01-16T10:50:29;5.10;;;3.33;;
17451;SDS011;8843;48.838;9.324;2024-01-16T10:52:56;3.93;;;2.93;;
17451;SDS011;8843;48.838;9.324;2024-01-16T10:55:27;7.03;;;2.90;;
17451;SDS011;8843;48.838;9.324;2024-01-16T10:57:56;5.20;;;3.20;;
17451;SDS011;8843;48.838;9.324;2024-01-16T11:00:25;6.83;;;3.43;;
17451;SDS011;8843;48.838;9.324;2024-01-16T11:02:58;5.80;;;2.83;;
17451;SDS011;8843;48.838;9.324;2024-01-16T11:05:28;5.80;;;3.50;;
17451;SDS011;8843;48.838;9.324;2024-01-16T11:07:58;8.17;;;3.23;;
17451;SDS011;8843;48.838;9.324;2024-01-16T11:10:27;4.23;;;2.90;;
17451;SDS011;8843;48.838;9.324;2024-01-16T11:12:59;5.93;;;3.07;;
17451;SDS011;8843;48.838;9.324;2024-01-16T11:15:28;5.10;;;3.00;;
17451;SDS011;8843;48.838;9.324;2024-01-16T11:17:55;4.43;;;3.13;;
17451;SDS011;8843;48.838;9.324;2024-01-16T11:20:22;4.83;;;2.60;;
17451;SDS011;8843;48.838;9.324;2024-01-16T11:22:50;5.83;;;3.50;;
17451;SDS011;8843;48.838;9.324;2024-01-16T11:25:20;4.17;;;2.80;;
17451;SDS011;8843;48.838;9.324;2024-01-16T11:27:57;5.93;;;2.97;;
17451;SDS011;8843;48.838;9.324;2024-01-16T11:30:35;6.13;;;2.87;;
17451;SDS011;8843;48.838;9.324;2024-01-16T11:33:02;3.97;;;2.90;;
17451;SDS011;8843;48.838;9.324;2024-01-16T11:35:33;6.50;;;2.90;;
17451;SDS011;8843;48.838;9.324;2024-01-16T11:38:05;6.00;;;2.90;;
17451;SDS011;8843;48.838;9.324;2024-01-16T11:40:34;4.90;;;2.90;;
17451;SDS011;8843;48.838;9.324;2024-01-16T11:46:03;4.27;;;2.73;;
17451;SDS011;8843;48.838;9.324;2024-01-16T11:48:32;7.37;;;2.97;;
17451;SDS011;8843;48.838;9.324;2024-01-16T11:50:59;4.13;;;2.70;;
17451;SDS011;8843;48.838;9.324;2024-01-16T11:53:36;4.87;;;3.00;;
17451;SDS011;8843;48.838;9.324;2024-01-16T11:56:13;2.97;;;2.60;;
17451;SDS011;8843;48.838;9.324;2024-01-16T11:58:56;8.13;;;2.97;;
17451;SDS011;8843;48.838;9.324;2024-01-16T12:01:33;3.63;;;2.13;;
17451;SDS011;8843;48.838;9.324;2024-01-16T12:04:02;4.97;;;2.10;;
17451;SDS011;8843;48.838;9.324;2024-01-16T12:06:29;6.03;;;1.83;;
17451;SDS011;8843;48.838;9.324;2024-01-16T12:09:10;5.87;;;1.70;;
17451;SDS011;8843;48.838;9.324;2024-01-16T12:11:37;4.13;;;2.43;;
17451;SDS011;8843;48.838;9.324;2024-01-16T12:14:05;4.87;;;2.57;;
17451;SDS011;8843;48.838;9.324;2024-01-16T12:16:32;4.47;;;2.10;;
17451;SDS011;8843;48.838;9.324;2024-01-16T12:19:06;5.07;;;2.37;;
17451;SDS011;8843;48.838;9.324;2024-01-16T12:21:33;3.37;;;2.00;;
17451;SDS011;8843;48.838;9.324;2024-01-16T12:24:01;5.60;;;2.63;;
17451;SDS011;8843;48.838;9.324;2024-01-16T12:26:29;3.13;;;2.03;;
17451;SDS011;8843;48.838;9.324;2024-01-16T12:28:57;3.60;;;2.50;;
17451;SDS011;8843;48.838;9.324;2024-01-16T12:31:25;4.50;;;2.30;;
17451;SDS011;8843;48.838;9.324;2024-01-16T12:33:55;4.77;;;2.63;;
17451;SDS011;8843;48.838;9.324;2024-01-16T12:36:30;6.73;;;2.43;;
17451;SDS011;8843;48.838;9.324;2024-01-16T12:38:57;2.80;;;2.10;;
17451;SDS011;8843;48.838;9.324;2024-01-16T12:41:24;5.10;;;2.50;;
17451;SDS011;8843;48.838;9.324;2024-01-16T12:43:54;3.10;;;2.10;;
17451;SDS011;8843;48.838;9.324;2024-01-16T12:46:20;8.50;;;2.67;;
17451;SDS011;8843;48.838;9.324;2024-01-16T12:48:49;4.23;;;2.30;;
17451;SDS011;8843;48.838;9.324;2024-01-16T12:51:20;3.37;;;1.80;;
17451;SDS011;8843;48.838;9.324;2024-01-16T12:53:47;3.70;;;2.13;;
17451;SDS011;8843;48.838;9.324;2024-01-16T12:56:17;4.27;;;1.80;;
17451;SDS011;8843;48.838;9.324;2024-01-16T12:58:46;3.87;;;1.83;;
17451;SDS011;8843;48.838;9.324;2024-01-16T13:01:22;2.83;;;1.77;;
17451;SDS011;8843;48.838;9.324;2024-01-16T13:03:52;5.00;;;2.30;;
17451;SDS011;8843;48.838;9.324;2024-01-16T13:06:20;5.33;;;2.00;;
17451;SDS011;8843;48.838;9.324;2024-01-16T13:08:47;1.90;;;1.77;;
17451;SDS011;8843;48.838;9.324;2024-01-16T13:11:14;1.73;;;1.43;;
17451;SDS011;8843;48.838;9.324;2024-01-16T13:13:45;2.83;;;1.60;;
17451;SDS011;8843;48.838;9.324;2024-01-16T13:16:12;2.93;;;1.93;;
17451;SDS011;8843;48.838;9.324;2024-01-16T13:18:39;4.57;;;1.70;;
17451;SDS011;8843;48.838;9.324;2024-01-16T13:21:07;2.60;;;1.63;;
17451;SDS011;8843;48.838;9.324;2024-01-16T13:23:34;4.13;;;1.73;;
17451;SDS011;8843;48.838;9.324;2024-01-16T13:26:01;3.07;;;1.87;;
17451;SDS011;8843;48.838;9.324;2024-01-16T13:28:30;4.80;;;1.73;;
17451;SDS011;8843;48.838;9.324;2024-01-16T13:30:57;5.03;;;1.70;;
17451;SDS011;8843;48.838;9.324;2024-01-16T13:33:24;4.13;;;1.77;;
17451;SDS011;8843;48.838;9.324;2024-01-16T13:35:53;3.70;;;1.40;;
17451;SDS011;8843;48.838;9.324;2024-01-16T13:38:22;5.53;;;2.00;;
17451;SDS011;8843;48.838;9.324;2024-01-16T13:40:49;3.33;;;1.33;;
17451;SDS011;8843;48.838;9.324;2024-01-16T13:43:16;3.27;;;1.90;;
17451;SDS011;8843;48.838;9.324;2024-01-16T13:45:43;2.07;;;1.90;;
17451;SDS011;8843;48.838;9.324;2024-01-16T13:48:14;4.23;;;2.10;;
17451;SDS011;8843;48.838;9.324;2024-01-16T13:50:42;2.27;;;1.57;;
17451;SDS011;8843;48.838;9.324;2024-01-16T13:53:09;2.80;;;1.57;;
17451;SDS011;8843;48.838;9.324;2024-01-16T13:55:39;2.93;;;2.10;;
17451;SDS011;8843;48.838;9.324;2024-01-16T13:58:07;1.97;;;1.60;;
17451;SDS011;8843;48.838;9.324;2024-01-16T14:00:34;4.40;;;1.70;;
17451;SDS011;8843;48.838;9.324;2024-01-16T14:03:01;2.93;;;1.63;;
17451;SDS011;8843;48.838;9.324;2024-01-16T14:05:30;3.43;;;1.87;;
17451;SDS011;8843;48.838;9.324;2024-01-16T14:07:57;5.30;;;1.30;;
17451;SDS011;8843;48.838;9.324;2024-01-16T14:10:24;3.97;;;1.37;;
17451;SDS011;8843;48.838;9.324;2024-01-16T14:12:53;2.07;;;1.47;;
17451;SDS011;8843;48.838;9.324;2024-01-16T14:15:21;3.03;;;1.57;;
17451;SDS011;8843;48.838;9.324;2024-01-16T14:17:49;2.87;;;1.60;;
17451;SDS011;8843;48.838;9.324;2024-01-16T14:20:18;5.73;;;1.93;;
17451;SDS011;8843;48.838;9.324;2024-01-16T14:22:48;2.73;;;1.40;;
17451;SDS011;8843;48.838;9.324;2024-01-16T14:25:15;1.80;;;1.30;;
17451;SDS011;8843;48.838;9.324;2024-01-16T14:27:44;2.73;;;1.60;;
17451;SDS011;8843;48.838;9.324;2024-01-16T14:30:14;1.90;;;1.50;;
17451;SDS011;8843;48.838;9.324;2024-01-16T14:32:42;3.90;;;1.77;;
17451;SDS011;8843;48.838;9.324;2024-01-16T14:35:10;2.30;;;1.50;;
17451;SDS011;8843;48.838;9.324;2024-01-16T14:37:38;2.57;;;1.90;;
17451;SDS011;8843;48.838;9.324;2024-01-16T14:40:06;2.20;;;1.60;;
17451;SDS011;8843;48.838;9.324;2024-01-16T14:42:37;7.43;;;2.00;;
17451;SDS011;8843;48.838;9.324;2024-01-16T14:45:05;2.80;;;1.67;;
17451;SDS011;8843;48.838;9.324;2024-01-16T14:47:34;2.77;;;2.07;;
17451;SDS011;8843;48.838;9.324;2024-01-16T14:50:01;2.37;;;1.80;;
17451;SDS011;8843;48.838;9.324;2024-01-16T14:52:28;4.47;;;2.50;;
17451;SDS011;8843;48.838;9.324;2024-01-16T14:54:57;4.20;;;1.93;;
17451;SDS011;8843;48.838;9.324;2024-01-16T14:57:24;4.57;;;2.00;;
17451;SDS011;8843;48.838;9.324;2024-01-16T14:59:52;2.30;;;2.10;;
17451;SDS011;8843;48.838;9.324;2024-01-16T15:02:19;2.30;;;1.80;;
17451;SDS011;8843;48.838;9.324;2024-01-16T15:04:47;2.43;;;1.50;;
17451;SDS011;8843;48.838;9.324;2024-01-16T15:07:14;2.27;;;1.70;;